Time;durP1;ratioP1;P1;durP2;ratioP2;P2;SDS_P1;SDS_P2;PMS_P1;PMS_P2;Temp;Humidity;BMP_temperature;BMP_pressure;BME280_temperature;BME280_humidity;BME280_pressure;Samples;Min_cycle;Max_cycle;Signal;HPM_P1;HPM_P2
2024/03/10 00:02:22;;;;;;;10.77;5.05;;;;;;;;;;5031540;28;20178;-64
2024/03/10 00:04:48;;;;;;;10.07;4.43;;;;;;;;;;5031495;28;20049;-64
2024/03/10 00:07:13;;;;;;;9.25;4.60;;;;;;;;;;5033237;28;20029;-63
2024/03/10 00:09:39;;;;;;;7.65;4.55;;;;;;;;;;5035367;28;20553;-64
2024/03/10 00:12:05;;;;;;;7.15;4.55;;;;;;;;;;5035454;28;20565;-63
2024/03/10 00:14:30;;;;;;;8.30;4.28;;;;;;;;;;5033942;28;20506;-62
2024/03/10 00:16:56;;;;;;;7.18;4.53;;;;;;;;;;5033855;28;20037;-62
2024/03/10 00:19:22;;;;;;;6.32;3.60;;;;;;;;;;5017542;28;20041;-64
2024/03/10 00:21:47;;;;;;;6.05;4.05;;;;;;;;;;5035108;28;20038;-63
2024/03/10 00:24:13;;;;;;;8.88;4.65;;;;;;;;;;5035190;28;20050;-63
2024/03/10 00:26:39;;;;;;;7.35;4.32;;;;;;;;;;5033746;28;20044;-63
2024/03/10 00:29:04;;;;;;;8.93;3.67;;;;;;;;;;5034994;28;20473;-63
2024/03/10 00:31:30;;;;;;;9.15;3.10;;;;;;;;;;5033196;28;20562;-62
2024/03/10 00:33:56;;;;;;;5.80;3.10;;;;;;;;;;5034612;28;20057;-63
2024/03/10 00:36:22;;;;;;;4.40;3.00;;;;;;;;;;5034774;28;20045;-64
2024/03/10 00:38:47;;;;;;;5.93;3.20;;;;;;;;;;5033711;28;20041;-62
2024/03/10 00:41:13;;;;;;;4.35;2.83;;;;;;;;;;5035021;28;20029;-62
2024/03/10 00:43:39;;;;;;;5.15;2.75;;;;;;;;;;5034797;28;20127;-63
2024/03/10 00:46:05;;;;;;;5.35;2.85;;;;;;;;;;5034957;28;20124;-62
2024/03/10 00:48:31;;;;;;;7.97;3.33;;;;;;;;;;5034681;28;20075;-62
2024/03/10 00:50:57;;;;;;;6.10;3.60;;;;;;;;;;5033642;28;20061;-62
2024/03/10 00:53:22;;;;;;;6.30;3.50;;;;;;;;;;5034326;28;20037;-64
2024/03/10 00:55:48;;;;;;;7.47;4.00;;;;;;;;;;5033219;28;20033;-64
2024/03/10 00:58:13;;;;;;;8.32;3.50;;;;;;;;;;5033048;28;20052;-63
2024/03/10 01:00:39;;;;;;;4.07;2.58;;;;;;;;;;5033429;28;20102;-62
2024/03/10 01:03:06;;;;;;;8.98;3.50;;;;;;;;;;5034526;28;20041;-62
2024/03/10 01:05:33;;;;;;;5.43;2.80;;;;;;;;;;5034500;28;20029;-61
2024/03/10 01:08:00;;;;;;;8.00;4.03;;;;;;;;;;5033860;28;20041;-62
2024/03/10 01:10:26;;;;;;;7.63;4.15;;;;;;;;;;5033109;28;20045;-63
2024/03/10 01:12:52;;;;;;;9.35;3.40;;;;;;;;;;5034414;28;20384;-62
2024/03/10 01:15:17;;;;;;;3.83;2.80;;;;;;;;;;5034460;28;20084;-62
2024/03/10 01:17:43;;;;;;;4.38;2.97;;;;;;;;;;5015354;28;20037;-64
2024/03/10 01:20:10;;;;;;;7.40;3.85;;;;;;;;;;5033731;28;20040;-62
2024/03/10 01:22:37;;;;;;;11.40;3.60;;;;;;;;;;5033402;28;20044;-62
2024/03/10 01:25:04;;;;;;;10.40;3.08;;;;;;;;;;5034357;28;20040;-63
2024/03/10 01:27:30;;;;;;;5.70;3.25;;;;;;;;;;5032943;28;20029;-62
2024/03/10 01:29:56;;;;;;;8.35;4.20;;;;;;;;;;5034191;28;20045;-62
2024/03/10 01:32:21;;;;;;;7.47;3.38;;;;;;;;;;5033734;28;20391;-62
2024/03/10 01:34:48;;;;;;;8.07;4.13;;;;;;;;;;5033508;28;20065;-63
2024/03/10 01:37:14;;;;;;;8.20;4.13;;;;;;;;;;5033882;28;20046;-61
2024/03/10 01:39:39;;;;;;;8.50;5.00;;;;;;;;;;5033991;28;20033;-62
2024/03/10 01:42:05;;;;;;;11.50;4.95;;;;;;;;;;5033661;28;20037;-62
2024/03/10 01:44:32;;;;;;;8.93;4.68;;;;;;;;;;5033880;28;20272;-62
2024/03/10 01:46:58;;;;;;;8.73;4.40;;;;;;;;;;5033582;28;20601;-62
2024/03/10 01:49:23;;;;;;;9.10;4.60;;;;;;;;;;5033675;28;20060;-63
2024/03/10 01:51:49;;;;;;;9.68;5.03;;;;;;;;;;5033681;28;20220;-64
2024/03/10 01:54:17;;;;;;;9.75;5.03;;;;;;;;;;5032225;28;20053;-62
2024/03/10 01:56:42;;;;;;;9.98;5.30;;;;;;;;;;5033444;28;20057;-63
2024/03/10 01:59:09;;;;;;;7.00;3.25;;;;;;;;;;5032691;28;20040;-63
2024/03/10 02:01:38;;;;;;;7.25;4.18;;;;;;;;;;5033543;28;20030;-63
2024/03/10 02:04:08;;;;;;;6.63;3.70;;;;;;;;;;5033562;28;20169;-62
2024/03/10 02:06:35;;;;;;;6.97;3.83;;;;;;;;;;5033435;28;20431;-63
2024/03/10 02:09:03;;;;;;;8.45;5.25;;;;;;;;;;5033002;28;20060;-63
2024/03/10 02:11:29;;;;;;;12.43;6.00;;;;;;;;;;5032646;28;20037;-63
2024/03/10 02:13:55;;;;;;;16.13;6.97;;;;;;;;;;5031004;28;20129;-62
2024/03/10 02:16:23;;;;;;;14.07;6.90;;;;;;;;;;5032689;28;20137;-62
2024/03/10 02:18:51;;;;;;;20.23;8.02;;;;;;;;;;5033053;28;20073;-63
2024/03/10 02:21:21;;;;;;;19.40;8.68;;;;;;;;;;5031701;28;20044;-62
2024/03/10 02:23:47;;;;;;;11.15;7.03;;;;;;;;;;5031665;28;20073;-62
2024/03/10 02:26:15;;;;;;;11.90;6.45;;;;;;;;;;5033367;28;20068;-63
2024/03/10 02:28:56;;;;;;;11.93;6.00;;;;;;;;;;5031475;28;20410;-63
2024/03/10 02:47:50;;;;;;;10.63;5.85;;;;;;;;;;5032663;28;20040;-62
2024/03/10 02:50:15;;;;;;;10.60;5.75;;;;;;;;;;5032217;28;20041;-62
2024/03/10 02:52:41;;;;;;;10.65;5.88;;;;;;;;;;5032220;28;20037;-63
2024/03/10 02:55:08;;;;;;;13.77;7.00;;;;;;;;;;5032707;28;20029;-62
2024/03/10 02:57:34;;;;;;;10.85;5.85;;;;;;;;;;5032386;28;20099;-62
2024/03/10 03:00:00;;;;;;;10.80;5.80;;;;;;;;;;5032506;28;20376;-63
2024/03/10 03:02:26;;;;;;;6.63;3.65;;;;;;;;;;5031043;28;20110;-63
2024/03/10 03:04:52;;;;;;;7.07;3.47;;;;;;;;;;5031109;28;20037;-62
2024/03/10 03:07:18;;;;;;;3.97;2.88;;;;;;;;;;5030826;28;20044;-64
2024/03/10 03:09:47;;;;;;;5.07;2.80;;;;;;;;;;5032135;28;20044;-64
2024/03/10 03:12:12;;;;;;;7.72;4.28;;;;;;;;;;5031774;28;20033;-62
2024/03/10 03:14:38;;;;;;;9.40;5.07;;;;;;;;;;5032194;28;20052;-62
2024/03/10 03:17:05;;;;;;;14.07;5.75;;;;;;;;;;5032592;28;20557;-65
2024/03/10 03:19:32;;;;;;;12.75;5.07;;;;;;;;;;5031903;28;20049;-62
2024/03/10 03:22:01;;;;;;;8.57;4.78;;;;;;;;;;5030510;28;20415;-63
2024/03/10 03:24:27;;;;;;;7.88;4.25;;;;;;;;;;5030744;28;20107;-63
2024/03/10 03:26:53;;;;;;;9.23;4.55;;;;;;;;;;5014212;28;20029;-63
2024/03/10 03:29:19;;;;;;;4.85;3.40;;;;;;;;;;5030778;28;20041;-63
2024/03/10 03:31:45;;;;;;;6.85;3.47;;;;;;;;;;5031874;28;20037;-62
2024/03/10 03:34:11;;;;;;;8.93;4.10;;;;;;;;;;5031246;28;20511;-63
2024/03/10 03:36:37;;;;;;;8.27;3.97;;;;;;;;;;5030499;28;20053;-64
2024/03/10 03:39:05;;;;;;;7.32;3.20;;;;;;;;;;5031838;28;20471;-63
2024/03/10 03:41:31;;;;;;;7.82;3.53;;;;;;;;;;5030709;28;20507;-63
2024/03/10 03:43:57;;;;;;;6.70;3.40;;;;;;;;;;5030218;28;20038;-63
2024/03/10 03:46:23;;;;;;;7.53;3.45;;;;;;;;;;5031629;28;20510;-64
2024/03/10 03:48:48;;;;;;;8.68;4.57;;;;;;;;;;5030129;28;20446;-62
2024/03/10 03:51:14;;;;;;;7.88;3.67;;;;;;;;;;5032012;28;20030;-63
2024/03/10 03:53:39;;;;;;;6.70;3.83;;;;;;;;;;5031840;28;20045;-63
2024/03/10 03:56:08;;;;;;;7.97;4.35;;;;;;;;;;5031168;28;20042;-62
2024/03/10 03:58:34;;;;;;;6.95;3.35;;;;;;;;;;5030204;28;20122;-62
2024/03/10 04:00:59;;;;;;;8.63;3.85;;;;;;;;;;5030116;28;20029;-64
2024/03/10 04:03:25;;;;;;;7.43;3.70;;;;;;;;;;5031360;28;20376;-63
2024/03/10 04:05:53;;;;;;;9.43;3.75;;;;;;;;;;5030070;28;20351;-62
2024/03/10 04:08:19;;;;;;;10.15;4.88;;;;;;;;;;5030211;28;20112;-63
2024/03/10 04:10:45;;;;;;;9.73;4.00;;;;;;;;;;5031505;28;20092;-63
2024/03/10 04:13:10;;;;;;;11.43;3.92;;;;;;;;;;5031164;28;20038;-61
2024/03/10 04:15:36;;;;;;;6.93;4.05;;;;;;;;;;5029808;28;20163;-64
2024/03/10 04:18:04;;;;;;;6.03;3.28;;;;;;;;;;5030216;28;20091;-63
2024/03/10 04:20:33;;;;;;;7.72;4.10;;;;;;;;;;5030109;28;20087;-63
2024/03/10 04:22:59;;;;;;;7.43;3.17;;;;;;;;;;5013419;28;20045;-63
2024/03/10 04:25:25;;;;;;;8.32;3.60;;;;;;;;;;5030972;28;20045;-63
2024/03/10 04:27:52;;;;;;;7.80;4.35;;;;;;;;;;5031279;28;20045;-63
2024/03/10 04:30:19;;;;;;;10.70;4.00;;;;;;;;;;5029929;28;20041;-61
2024/03/10 04:32:44;;;;;;;10.52;4.32;;;;;;;;;;5031181;28;20407;-63
2024/03/10 04:35:11;;;;;;;7.80;3.55;;;;;;;;;;5029294;28;20072;-64
2024/03/10 04:37:37;;;;;;;9.73;3.80;;;;;;;;;;5029893;28;20132;-63
2024/03/10 04:40:06;;;;;;;8.77;4.18;;;;;;;;;;5030785;28;20535;-64
2024/03/10 04:42:34;;;;;;;6.07;3.05;;;;;;;;;;5030641;28;20030;-64
2024/03/10 04:44:59;;;;;;;9.98;3.88;;;;;;;;;;5029718;28;20509;-63
2024/03/10 04:47:26;;;;;;;8.35;3.70;;;;;;;;;;5031087;28;20045;-64
2024/03/10 04:49:52;;;;;;;14.23;4.20;;;;;;;;;;5029412;28;20029;-61
2024/03/10 04:52:17;;;;;;;9.63;3.78;;;;;;;;;;5031452;28;20128;-64
2024/03/10 04:54:45;;;;;;;8.82;3.70;;;;;;;;;;5034798;28;20191;-62
2024/03/10 04:57:11;;;;;;;10.55;3.72;;;;;;;;;;5033060;28;20041;-62
2024/03/10 04:59:36;;;;;;;7.53;3.33;;;;;;;;;;5034736;28;20129;-63
2024/03/10 05:02:02;;;;;;;9.27;5.30;;;;;;;;;;5034649;28;20179;-63
2024/03/10 05:04:28;;;;;;;9.40;3.95;;;;;;;;;;5034561;28;20045;-63
2024/03/10 05:06:53;;;;;;;5.60;3.33;;;;;;;;;;5032933;28;20033;-64
2024/03/10 05:09:19;;;;;;;3.60;2.83;;;;;;;;;;5034483;28;20037;-62
2024/03/10 05:11:44;;;;;;;9.13;3.80;;;;;;;;;;5034089;28;20048;-64
2024/03/10 05:14:10;;;;;;;14.68;3.55;;;;;;;;;;5032816;28;20435;-61
2024/03/10 05:16:36;;;;;;;15.75;8.88;;;;;;;;;;5033959;28;20053;-64
2024/03/10 05:19:02;;;;;;;7.38;3.33;;;;;;;;;;5034226;28;20069;-63
2024/03/10 05:21:27;;;;;;;7.93;3.67;;;;;;;;;;5032986;28;20043;-64
2024/03/10 05:23:53;;;;;;;6.15;2.55;;;;;;;;;;5034273;28;20041;-64
2024/03/10 05:26:19;;;;;;;5.55;3.05;;;;;;;;;;5034172;28;20110;-64
2024/03/10 05:28:45;;;;;;;7.50;3.03;;;;;;;;;;5033934;28;20042;-63
2024/03/10 05:31:29;;;;;;;9.57;3.30;;;;;;;;;;5034075;28;20124;-64
2024/03/10 05:33:59;;;;;;;8.77;3.55;;;;;;;;;;5033651;28;20068;-63
2024/03/10 05:36:25;;;;;;;5.87;3.07;;;;;;;;;;5033783;28;20077;-63
2024/03/10 05:38:51;;;;;;;6.05;3.28;;;;;;;;;;5033703;28;20323;-63
2024/03/10 05:41:17;;;;;;;7.05;3.47;;;;;;;;;;5032320;28;20025;-64
2024/03/10 05:43:45;;;;;;;9.43;3.60;;;;;;;;;;5033408;28;20037;-62
2024/03/10 05:46:14;;;;;;;5.07;2.95;;;;;;;;;;5033231;28;20492;-62
2024/03/10 05:48:40;;;;;;;6.53;3.33;;;;;;;;;;5033489;28;20514;-63
2024/03/10 05:51:07;;;;;;;6.47;3.20;;;;;;;;;;5015828;28;20061;-63
2024/03/10 05:53:33;;;;;;;8.25;3.35;;;;;;;;;;5032183;28;20128;-63
2024/03/10 05:55:59;;;;;;;8.63;3.15;;;;;;;;;;5032446;28;20137;-63
2024/03/10 05:58:24;;;;;;;9.05;3.40;;;;;;;;;;5032219;28;20069;-63
2024/03/10 06:00:50;;;;;;;7.97;3.40;;;;;;;;;;5033305;28;20132;-63
2024/03/10 06:03:16;;;;;;;5.28;3.30;;;;;;;;;;5033155;28;20388;-62
2024/03/10 06:05:41;;;;;;;7.20;3.25;;;;;;;;;;5032766;28;20090;-63
2024/03/10 06:08:10;;;;;;;8.75;3.40;;;;;;;;;;5031818;28;20086;-62
2024/03/10 06:10:38;;;;;;;5.10;3.22;;;;;;;;;;5033352;28;20135;-62
2024/03/10 06:13:04;;;;;;;5.35;3.70;;;;;;;;;;5032019;28;20037;-63
2024/03/10 06:15:30;;;;;;;7.63;3.70;;;;;;;;;;5032768;28;20495;-65
2024/03/10 06:18:15;;;;;;;5.20;3.15;;;;;;;;;;5033218;28;20046;-62
2024/03/10 06:26:12;;;;;;;6.20;3.47;;;;;;;;;;5033027;28;20448;-61
2024/03/10 06:28:40;;;;;;;4.90;3.17;;;;;;;;;;5031571;28;20072;-63
2024/03/10 06:31:06;;;;;;;6.22;3.80;;;;;;;;;;5032614;28;20498;-63
2024/03/10 06:33:34;;;;;;;6.35;3.90;;;;;;;;;;5032571;28;20148;-63
2024/03/10 06:35:59;;;;;;;5.65;3.63;;;;;;;;;;5031729;28;20063;-64
2024/03/10 06:38:25;;;;;;;4.95;3.05;;;;;;;;;;5031258;28;20046;-64
2024/03/10 06:40:51;;;;;;;8.05;3.08;;;;;;;;;;5032761;28;20122;-64
2024/03/10 06:43:16;;;;;;;5.25;3.10;;;;;;;;;;5031225;28;20124;-62
2024/03/10 06:45:42;;;;;;;4.35;2.83;;;;;;;;;;5031225;28;20029;-65
2024/03/10 06:48:09;;;;;;;5.28;3.03;;;;;;;;;;5032410;28;20036;-62
2024/03/10 06:50:35;;;;;;;5.95;3.08;;;;;;;;;;5031566;28;20042;-65
2024/03/10 06:53:01;;;;;;;7.55;2.80;;;;;;;;;;5030889;28;20060;-61
2024/03/10 06:55:26;;;;;;;6.00;2.88;;;;;;;;;;5032007;28;20045;-64
2024/03/10 06:57:52;;;;;;;3.42;2.58;;;;;;;;;;5014348;28;20056;-62
2024/03/10 07:00:24;;;;;;;5.32;2.55;;;;;;;;;;5032495;28;20056;-63
2024/03/10 07:02:50;;;;;;;4.57;2.78;;;;;;;;;;5031134;28;20029;-64
2024/03/10 07:05:16;;;;;;;3.78;2.53;;;;;;;;;;5030961;28;20033;-63
2024/03/10 07:07:42;;;;;;;3.95;2.60;;;;;;;;;;5030625;28;20423;-63
2024/03/10 07:10:12;;;;;;;5.70;2.72;;;;;;;;;;5032264;28;20037;-62
2024/03/10 07:12:38;;;;;;;5.15;2.83;;;;;;;;;;5030539;28;20116;-64
2024/03/10 07:15:05;;;;;;;7.50;3.17;;;;;;;;;;5032138;28;20037;-62
2024/03/10 07:17:31;;;;;;;3.80;2.55;;;;;;;;;;5030360;28;20064;-63
2024/03/10 07:19:57;;;;;;;3.85;2.53;;;;;;;;;;5032182;28;20494;-63
2024/03/10 07:22:22;;;;;;;5.25;2.65;;;;;;;;;;5031684;28;20033;-63
2024/03/10 07:24:50;;;;;;;6.10;3.03;;;;;;;;;;5014109;28;20029;-64
2024/03/10 07:27:16;;;;;;;3.90;2.00;;;;;;;;;;5032009;28;20402;-62
2024/03/10 07:29:43;;;;;;;2.20;1.75;;;;;;;;;;5030512;28;20045;-64
2024/03/10 07:32:09;;;;;;;4.07;2.58;;;;;;;;;;5031647;28;20069;-63
2024/03/10 07:34:34;;;;;;;4.43;2.70;;;;;;;;;;5031319;28;20107;-62
2024/03/10 07:37:00;;;;;;;2.88;1.98;;;;;;;;;;5030216;28;20065;-63
2024/03/10 07:39:26;;;;;;;2.17;1.60;;;;;;;;;;5030356;28;20451;-62
2024/03/10 07:41:51;;;;;;;2.55;1.90;;;;;;;;;;5030279;28;20518;-61
2024/03/10 07:44:17;;;;;;;2.25;1.70;;;;;;;;;;5031200;28;20042;-63
2024/03/10 07:46:43;;;;;;;2.55;2.00;;;;;;;;;;5030509;28;20483;-64
2024/03/10 07:49:10;;;;;;;2.35;1.58;;;;;;;;;;5031140;28;20033;-62
2024/03/10 07:51:35;;;;;;;1.88;1.55;;;;;;;;;;5028840;28;20411;-63
2024/03/10 07:54:02;;;;;;;1.60;1.50;;;;;;;;;;5028835;28;20042;-63
2024/03/10 07:56:28;;;;;;;1.80;1.42;;;;;;;;;;5030223;28;20037;-63
2024/03/10 07:58:54;;;;;;;3.45;2.00;;;;;;;;;;5029676;28;20048;-63
2024/03/10 08:01:20;;;;;;;2.55;1.60;;;;;;;;;;5012618;28;20033;-63
2024/03/10 08:03:48;;;;;;;1.95;1.70;;;;;;;;;;5010294;28;20038;-63
2024/03/10 08:06:14;;;;;;;2.60;1.95;;;;;;;;;;5010554;28;20038;-62
2024/03/10 08:08:39;;;;;;;3.08;1.55;;;;;;;;;;5010473;28;20488;-64
2024/03/10 08:11:05;;;;;;;2.53;1.25;;;;;;;;;;5011648;28;20038;-63
2024/03/10 08:13:31;;;;;;;3.33;1.75;;;;;;;;;;5011711;28;20452;-65
2024/03/10 08:15:59;;;;;;;2.33;1.75;;;;;;;;;;5021029;28;20048;-64
2024/03/10 08:18:24;;;;;;;3.80;2.00;;;;;;;;;;5031779;28;20392;-64
2024/03/10 08:20:50;;;;;;;4.57;1.67;;;;;;;;;;5032200;28;20036;-66
2024/03/10 08:23:17;;;;;;;3.13;1.60;;;;;;;;;;5031212;28;20041;-64
2024/03/10 08:25:45;;;;;;;2.50;1.80;;;;;;;;;;5031287;28;20052;-65
2024/03/10 08:28:10;;;;;;;5.03;1.75;;;;;;;;;;5034117;28;20037;-64
2024/03/10 08:30:37;;;;;;;3.88;1.95;;;;;;;;;;5036107;28;20436;-65
2024/03/10 08:33:04;;;;;;;2.33;1.70;;;;;;;;;;5033544;28;20033;-67
2024/03/10 08:35:31;;;;;;;3.17;1.70;;;;;;;;;;5034614;28;20278;-64
2024/03/10 08:37:57;;;;;;;2.55;1.55;;;;;;;;;;5036521;28;20074;-64
2024/03/10 08:40:23;;;;;;;5.15;3.10;;;;;;;;;;5033348;28;20065;-64
2024/03/10 08:42:50;;;;;;;3.15;2.20;;;;;;;;;;5066168;28;20080;-63
2024/03/10 08:45:15;;;;;;;2.15;1.52;;;;;;;;;;5035051;28;20120;-65
2024/03/10 08:47:42;;;;;;;2.03;1.42;;;;;;;;;;5034660;28;20083;-65
2024/03/10 08:50:09;;;;;;;3.95;2.13;;;;;;;;;;5035164;28;20048;-65
2024/03/10 08:52:36;;;;;;;4.22;2.00;;;;;;;;;;5035047;28;20048;-65
2024/03/10 08:55:04;;;;;;;5.72;2.53;;;;;;;;;;5029840;28;20037;-64
2024/03/10 08:57:35;;;;;;;2.55;1.88;;;;;;;;;;5032051;28;20127;-64
2024/03/10 09:00:02;;;;;;;2.35;1.80;;;;;;;;;;5033188;28;20565;-63
2024/03/10 09:02:31;;;;;;;1.70;1.50;;;;;;;;;;5034272;28;20490;-64
2024/03/10 09:04:57;;;;;;;2.97;2.00;;;;;;;;;;5034426;28;20045;-63
2024/03/10 09:07:25;;;;;;;3.15;1.90;;;;;;;;;;5032839;28;20407;-64
2024/03/10 09:09:51;;;;;;;2.70;1.92;;;;;;;;;;5033661;28;20042;-63
2024/03/10 09:12:17;;;;;;;3.78;2.05;;;;;;;;;;5028734;28;20412;-64
2024/03/10 09:14:43;;;;;;;1.65;1.55;;;;;;;;;;5032798;28;20033;-65
2024/03/10 09:17:08;;;;;;;3.30;2.13;;;;;;;;;;5015838;28;20538;-64
2024/03/10 09:19:34;;;;;;;1.40;1.30;;;;;;;;;;5016036;28;20046;-62
2024/03/10 09:22:00;;;;;;;2.17;1.77;;;;;;;;;;5033875;28;20044;-62
2024/03/10 09:24:28;;;;;;;3.72;2.22;;;;;;;;;;5031073;28;20079;-62
2024/03/10 09:26:56;;;;;;;2.45;1.48;;;;;;;;;;4999316;28;20545;-62
2024/03/10 09:29:26;;;;;;;2.65;1.83;;;;;;;;;;5033710;28;20045;-61
2024/03/10 09:31:55;;;;;;;4.07;1.95;;;;;;;;;;5033002;28;20483;-61
2024/03/10 09:34:22;;;;;;;3.40;2.17;;;;;;;;;;5032112;28;20097;-63
2024/03/10 09:36:47;;;;;;;3.42;2.17;;;;;;;;;;5032466;28;20050;-61
2024/03/10 09:39:13;;;;;;;4.47;2.22;;;;;;;;;;5031902;28;20037;-61
2024/03/10 09:41:41;;;;;;;3.20;1.80;;;;;;;;;;5033083;28;20043;-63
2024/03/10 09:44:06;;;;;;;2.50;1.70;;;;;;;;;;5033421;28;20040;-62
2024/03/10 09:46:33;;;;;;;2.88;1.80;;;;;;;;;;5033558;28;20033;-61
2024/03/10 09:48:59;;;;;;;4.22;2.22;;;;;;;;;;5033066;28;20037;-61
2024/03/10 09:51:27;;;;;;;2.05;1.58;;;;;;;;;;5032965;28;20557;-61
2024/03/10 09:53:53;;;;;;;2.25;1.80;;;;;;;;;;5031265;28;20644;-64
2024/03/10 09:56:19;;;;;;;5.65;1.60;;;;;;;;;;5033214;28;20037;-64
2024/03/10 09:58:48;;;;;;;2.22;1.70;;;;;;;;;;5033026;28;20056;-59
2024/03/10 10:01:15;;;;;;;2.33;1.88;;;;;;;;;;5032660;28;20029;-56
2024/03/10 10:03:43;;;;;;;3.35;1.73;;;;;;;;;;5032390;28;20041;-63
2024/03/10 10:06:11;;;;;;;2.70;1.60;;;;;;;;;;5030558;28;20030;-58
2024/03/10 10:08:37;;;;;;;2.80;1.60;;;;;;;;;;5029154;28;20086;-59
2024/03/10 10:11:02;;;;;;;2.97;1.90;;;;;;;;;;5019649;28;20493;-63
2024/03/10 10:13:29;;;;;;;2.33;1.40;;;;;;;;;;5010899;28;20599;-61
2024/03/10 10:15:55;;;;;;;1.75;1.40;;;;;;;;;;5011395;28;20061;-64
2024/03/10 10:18:21;;;;;;;1.58;1.38;;;;;;;;;;5011562;28;20504;-64
2024/03/10 10:20:51;;;;;;;1.70;1.38;;;;;;;;;;5011615;28;20037;-67
2024/03/10 10:23:24;;;;;;;1.92;1.50;;;;;;;;;;5012566;28;20156;-66
2024/03/10 10:25:53;;;;;;;2.95;2.00;;;;;;;;;;5011398;28;20412;-67
2024/03/10 10:28:19;;;;;;;3.30;1.77;;;;;;;;;;5044394;28;20510;-66
2024/03/10 10:30:44;;;;;;;5.30;2.22;;;;;;;;;;5012703;28;20038;-69
2024/03/10 10:33:14;;;;;;;7.28;2.55;;;;;;;;;;5012552;28;20148;-66
2024/03/10 10:35:42;;;;;;;2.60;2.00;;;;;;;;;;5012269;28;20057;-65
2024/03/10 10:38:12;;;;;;;2.35;1.60;;;;;;;;;;5012065;28;20411;-63
2024/03/10 10:40:39;;;;;;;2.28;1.33;;;;;;;;;;5012452;28;20196;-64
2024/03/10 10:43:06;;;;;;;1.88;1.50;;;;;;;;;;5012224;28;20038;-62
2024/03/10 10:45:35;;;;;;;2.17;1.77;;;;;;;;;;5011035;28;20049;-62
2024/03/10 10:48:01;;;;;;;2.40;1.63;;;;;;;;;;5012307;28;20026;-64
2024/03/10 10:50:34;;;;;;;2.33;1.70;;;;;;;;;;5011695;28;20038;-65
2024/03/10 10:53:01;;;;;;;1.52;1.30;;;;;;;;;;5012142;28;20478;-65
2024/03/10 10:55:39;;;;;;;1.65;1.30;;;;;;;;;;5018724;28;20044;-66
2024/03/10 10:58:23;;;;;;;1.63;1.33;;;;;;;;;;4998293;28;20420;-64
2024/03/10 11:00:53;;;;;;;4.55;1.95;;;;;;;;;;5017102;28;20339;-65
2024/03/10 11:03:24;;;;;;;2.63;1.80;;;;;;;;;;5011290;28;20034;-64
2024/03/10 11:06:02;;;;;;;3.08;1.52;;;;;;;;;;5010421;28;20029;-65
2024/03/10 11:08:35;;;;;;;1.67;1.15;;;;;;;;;;5010653;28;20077;-66
2024/03/10 11:11:01;;;;;;;1.60;1.50;;;;;;;;;;5010891;28;20049;-67
2024/03/10 11:13:28;;;;;;;1.23;1.15;;;;;;;;;;5010434;28;20044;-65
2024/03/10 11:16:13;;;;;;;0.90;0.90;;;;;;;;;;5043480;28;20500;-65
2024/03/10 11:18:41;;;;;;;2.38;1.50;;;;;;;;;;5029578;28;20107;-71
2024/03/10 11:21:12;;;;;;;1.40;1.20;;;;;;;;;;5031260;28;20080;-65
2024/03/10 11:23:48;;;;;;;2.22;1.50;;;;;;;;;;5029984;28;20045;-64
2024/03/10 11:26:17;;;;;;;3.50;1.67;;;;;;;;;;5031137;28;20124;-64
2024/03/10 11:28:54;;;;;;;3.00;1.67;;;;;;;;;;5029899;28;20522;-64
2024/03/10 11:31:23;;;;;;;2.75;1.35;;;;;;;;;;5029484;28;20060;-64
2024/03/10 11:34:07;;;;;;;2.22;1.25;;;;;;;;;;5031142;28;20149;-64
2024/03/10 11:36:38;;;;;;;3.22;1.50;;;;;;;;;;5030753;28;20033;-64
2024/03/10 11:39:04;;;;;;;2.10;1.35;;;;;;;;;;5029458;28;20042;-64
2024/03/10 11:41:31;;;;;;;1.38;1.27;;;;;;;;;;5031178;28;20030;-65
2024/03/10 11:43:57;;;;;;;2.08;1.42;;;;;;;;;;5029570;28;20250;-65
2024/03/10 11:46:33;;;;;;;1.80;1.30;;;;;;;;;;5029253;28;20127;-64
2024/03/10 11:49:01;;;;;;;3.55;1.30;;;;;;;;;;5029171;28;20037;-64
2024/03/10 11:51:27;;;;;;;2.25;1.42;;;;;;;;;;5029416;28;20041;-65
2024/03/10 11:53:57;;;;;;;1.98;1.35;;;;;;;;;;5030488;28;20399;-64
2024/03/10 11:56:22;;;;;;;3.40;2.03;;;;;;;;;;5030667;28;20036;-63
2024/03/10 11:58:49;;;;;;;1.35;1.25;;;;;;;;;;5031039;28;20079;-64
2024/03/10 12:01:16;;;;;;;1.48;1.20;;;;;;;;;;5030671;28;20045;-64
2024/03/10 12:03:47;;;;;;;1.73;1.17;;;;;;;;;;5030178;28;20049;-64
2024/03/10 12:06:14;;;;;;;3.13;1.33;;;;;;;;;;5031204;28;20033;-64
2024/03/10 12:08:42;;;;;;;1.20;1.10;;;;;;;;;;5029190;28;20041;-64
2024/03/10 12:11:11;;;;;;;1.20;1.15;;;;;;;;;;5030999;28;20033;-64
2024/03/10 12:13:47;;;;;;;1.70;1.10;;;;;;;;;;5031019;28;20457;-64
2024/03/10 12:16:12;;;;;;;1.00;1.00;;;;;;;;;;5029614;28;20602;-64
2024/03/10 12:18:40;;;;;;;1.17;1.08;;;;;;;;;;5029618;28;20124;-65
2024/03/10 12:21:10;;;;;;;1.15;1.05;;;;;;;;;;5030601;28;20148;-63
2024/03/10 12:23:36;;;;;;;1.25;1.15;;;;;;;;;;5012391;28;20076;-63
2024/03/10 12:26:09;;;;;;;1.48;1.33;;;;;;;;;;5013150;28;20495;-64
2024/03/10 12:28:36;;;;;;;1.50;1.35;;;;;;;;;;5031118;28;20041;-65
2024/03/10 12:31:05;;;;;;;2.10;1.20;;;;;;;;;;5029997;28;20056;-65
2024/03/10 12:33:31;;;;;;;2.40;1.10;;;;;;;;;;5012830;28;20059;-65
2024/03/10 12:35:58;;;;;;;2.33;1.30;;;;;;;;;;5029699;28;20034;-64
2024/03/10 12:38:25;;;;;;;1.40;1.30;;;;;;;;;;5028798;28;20053;-64
2024/03/10 12:40:51;;;;;;;1.45;1.30;;;;;;;;;;5029563;28;20037;-66
2024/03/10 12:43:16;;;;;;;3.45;1.20;;;;;;;;;;5030241;28;20148;-65
2024/03/10 12:45:42;;;;;;;2.08;1.30;;;;;;;;;;5030400;28;20087;-65
2024/03/10 12:48:07;;;;;;;1.55;1.45;;;;;;;;;;5030040;28;20130;-64
2024/03/10 12:50:33;;;;;;;1.25;1.15;;;;;;;;;;5030243;28;20037;-66
2024/03/10 12:52:59;;;;;;;3.13;1.10;;;;;;;;;;5029532;28;20427;-64
2024/03/10 12:55:25;;;;;;;1.75;1.17;;;;;;;;;;5029262;28;20060;-66
2024/03/10 12:57:51;;;;;;;1.10;1.00;;;;;;;;;;5028460;28;20045;-65
2024/03/10 13:00:22;;;;;;;1.70;1.20;;;;;;;;;;5030891;28;20037;-64
2024/03/10 13:02:49;;;;;;;1.58;1.25;;;;;;;;;;5030469;28;20431;-64
2024/03/10 13:05:16;;;;;;;1.30;1.20;;;;;;;;;;5029001;28;20064;-63
2024/03/10 13:07:42;;;;;;;4.60;2.83;;;;;;;;;;5029941;28;20057;-62
2024/03/10 13:10:10;;;;;;;1.88;1.45;;;;;;;;;;5030600;28;20042;-63
2024/03/10 13:12:38;;;;;;;1.90;1.48;;;;;;;;;;5030305;28;20403;-66
2024/03/10 13:15:05;;;;;;;2.15;1.52;;;;;;;;;;5033158;28;20033;-65
2024/03/10 13:17:33;;;;;;;1.73;1.15;;;;;;;;;;5033907;28;20053;-63
2024/03/10 13:20:00;;;;;;;1.95;1.38;;;;;;;;;;5016064;28;20091;-68
2024/03/10 13:22:26;;;;;;;2.58;1.33;;;;;;;;;;5031884;28;20124;-65
2024/03/10 13:24:52;;;;;;;1.20;1.10;;;;;;;;;;5032622;28;20038;-66
2024/03/10 13:27:18;;;;;;;2.03;1.40;;;;;;;;;;5031652;28;20083;-68
2024/03/10 13:29:43;;;;;;;2.47;1.70;;;;;;;;;;5032003;28;20410;-68
2024/03/10 13:32:09;;;;;;;1.80;1.17;;;;;;;;;;5032338;28;20037;-66
2024/03/10 13:34:35;;;;;;;2.05;1.33;;;;;;;;;;5015992;28;20126;-66
2024/03/10 13:37:09;;;;;;;3.38;1.60;;;;;;;;;;5033748;28;20582;-67
2024/03/10 13:39:35;;;;;;;1.42;1.15;;;;;;;;;;5034199;28;20041;-67
2024/03/10 13:42:01;;;;;;;3.35;1.40;;;;;;;;;;5033692;28;20407;-68
2024/03/10 13:44:27;;;;;;;5.20;3.13;;;;;;;;;;5032477;28;20048;-66
2024/03/10 13:46:56;;;;;;;2.75;2.00;;;;;;;;;;5031963;28;20042;-66
2024/03/10 13:49:22;;;;;;;2.08;1.48;;;;;;;;;;5033915;28;20734;-67
2024/03/10 13:51:48;;;;;;;3.25;1.70;;;;;;;;;;5033803;28;20033;-68
2024/03/10 13:54:14;;;;;;;2.13;1.50;;;;;;;;;;5033664;28;20483;-67
2024/03/10 13:56:39;;;;;;;2.17;1.98;;;;;;;;;;5016052;28;20033;-66
2024/03/10 13:59:05;;;;;;;2.67;1.88;;;;;;;;;;5033731;28;20103;-67
2024/03/10 14:01:33;;;;;;;1.20;1.10;;;;;;;;;;5033485;28;20033;-67
2024/03/10 14:04:03;;;;;;;32.13;15.90;;;;;;;;;;5031851;28;20045;-66
2024/03/10 14:06:31;;;;;;;2.60;1.80;;;;;;;;;;4998737;28;20037;-67
2024/03/10 14:08:57;;;;;;;2.20;1.55;;;;;;;;;;5032261;28;20121;-66
2024/03/10 14:11:23;;;;;;;1.40;1.30;;;;;;;;;;5033198;28;20123;-68
2024/03/10 14:13:49;;;;;;;1.40;1.30;;;;;;;;;;5033282;28;20043;-66
2024/03/10 14:16:15;;;;;;;1.35;1.25;;;;;;;;;;5031921;28;20043;-67
2024/03/10 14:18:41;;;;;;;1.55;1.42;;;;;;;;;;5030738;28;20052;-67
2024/03/10 14:21:09;;;;;;;3.38;1.52;;;;;;;;;;5031636;28;20033;-67
2024/03/10 14:23:35;;;;;;;2.22;1.73;;;;;;;;;;5032638;28;20128;-67
2024/03/10 14:26:01;;;;;;;3.65;1.55;;;;;;;;;;5014828;28;20519;-68
2024/03/10 14:28:27;;;;;;;3.50;1.95;;;;;;;;;;5032864;28;20049;-66
2024/03/10 14:30:53;;;;;;;1.50;1.40;;;;;;;;;;5033046;28;20037;-67
2024/03/10 14:33:18;;;;;;;4.20;1.48;;;;;;;;;;5032953;28;20457;-65
2024/03/10 14:35:44;;;;;;;2.63;1.30;;;;;;;;;;5032564;28;20468;-67
2024/03/10 14:38:11;;;;;;;3.13;1.48;;;;;;;;;;5031337;28;20045;-67
2024/03/10 14:40:37;;;;;;;1.42;1.30;;;;;;;;;;5032460;28;20042;-68
2024/03/10 14:43:04;;;;;;;3.47;1.75;;;;;;;;;;5032639;28;20041;-66
2024/03/10 14:45:30;;;;;;;2.30;1.40;;;;;;;;;;5030177;28;20058;-66
2024/03/10 14:47:55;;;;;;;3.03;1.40;;;;;;;;;;5032395;28;20067;-67
2024/03/10 14:50:24;;;;;;;2.85;1.60;;;;;;;;;;5031263;28;20534;-70
2024/03/10 14:52:52;;;;;;;1.35;1.17;;;;;;;;;;5031222;28;20033;-66
2024/03/10 14:55:19;;;;;;;1.30;1.20;;;;;;;;;;5031096;28;20035;-66
2024/03/10 14:57:45;;;;;;;1.30;1.20;;;;;;;;;;5031022;28;20049;-64
2024/03/10 15:00:32;;;;;;;1.27;1.17;;;;;;;;;;5026240;28;20495;-66
2024/03/10 15:03:01;;;;;;;1.58;1.45;;;;;;;;;;5030618;28;20041;-67